Terminal Aerodrome Forecast
Issued by NWS

Home | Current Version | Previous Version | Text Only | Print | Product List | Glossary On
Versions: 1 2 3 4 5 6 7 8 9 10 11 12 13 14 15 16 17
000
FTUS43 KDVN 281356 AAB
TAFCID
TAF AMD
KCID 281356Z 2814/2912 32008KT P6SM SCT005 BKN015
      TEMPO 2814/2816 4SM BR OVC005
     FM281800 33009KT P6SM BKN029
     FM282100 33009KT P6SM BKN050
     FM290500 34006KT 3SM BR OVC015=

USA.gov is the U.S. government's official web portal to all federal, state and local government web resources and services.